createdAt,value
2022-07-26T00:02:13.091Z,50.20
2022-07-26T00:05:18.957Z,50.04
2022-07-26T00:08:23.046Z,50.18
2022-07-26T00:11:27.123Z,50.36
2022-07-26T00:14:30.340Z,50.34
2022-07-26T00:17:33.104Z,50.38
2022-07-26T00:20:36.377Z,50.29
2022-07-26T00:24:01.501Z,50.50
2022-07-26T00:27:22.819Z,50.34
2022-07-26T00:30:46.778Z,50.52
2022-07-26T00:33:49.561Z,50.47
2022-07-26T00:36:52.527Z,50.40
2022-07-26T00:39:56.629Z,50.52
2022-07-26T00:42:59.387Z,50.71
2022-07-26T00:46:03.081Z,51.10
2022-07-26T00:49:06.311Z,51.44
2022-07-26T00:52:11.483Z,51.56
2022-07-26T00:55:16.400Z,51.73
2022-07-26T00:58:20.227Z,51.89
2022-07-26T01:01:22.947Z,52.01
2022-07-26T01:04:25.762Z,52.31
2022-07-26T01:07:29.575Z,52.30
2022-07-26T01:10:33.861Z,52.50
2022-07-26T01:13:37.089Z,52.58
2022-07-26T01:16:39.945Z,52.89
2022-07-26T01:19:43.337Z,53.32
2022-07-26T01:22:47.422Z,53.65
2022-07-26T01:25:50.853Z,54.20
2022-07-26T01:28:55.072Z,54.40
2022-07-26T01:31:58.233Z,54.90
2022-07-26T01:35:00.945Z,55.25
2022-07-26T01:38:06.190Z,55.57
2022-07-26T01:41:09.456Z,55.58
2022-07-26T01:44:12.589Z,56.02
2022-07-26T01:47:15.738Z,56.80
2022-07-26T01:50:19.816Z,57.77
2022-07-26T01:53:24.514Z,59.05
2022-07-26T01:56:27.249Z,59.54
2022-07-26T01:59:30.429Z,60.09
2022-07-26T02:02:33.317Z,60.29
2022-07-26T02:05:36.536Z,60.05
2022-07-26T02:08:40.725Z,60.17
2022-07-26T02:11:43.459Z,60.08
2022-07-26T02:14:46.202Z,60.32
2022-07-26T02:17:49.436Z,60.35
2022-07-26T02:20:52.216Z,60.21
2022-07-26T02:23:56.312Z,60.47
2022-07-26T02:27:00.366Z,60.55
2022-07-26T02:30:03.210Z,60.74
2022-07-26T02:33:06.250Z,61.06
2022-07-26T02:36:09.008Z,61.05
2022-07-26T02:39:14.450Z,61.15
2022-07-26T02:42:17.155Z,61.56
2022-07-26T02:45:20.243Z,61.59
2022-07-26T02:48:23.023Z,62.00
2022-07-26T02:51:25.787Z,62.27
2022-07-26T02:54:30.232Z,62.43
2022-07-26T02:57:40.377Z,62.86
2022-07-26T03:00:49.258Z,63.00
2022-07-26T03:03:52.027Z,63.37
2022-07-26T03:06:55.182Z,63.17
2022-07-26T03:09:59.260Z,63.62
2022-07-26T03:13:02.621Z,63.55
2022-07-26T03:16:05.909Z,63.68
2022-07-26T03:19:09.092Z,63.85
2022-07-26T03:22:12.388Z,64.01
2022-07-26T03:25:16.670Z,64.27
2022-07-26T03:28:19.840Z,64.01
2022-07-26T03:31:23.919Z,64.20
2022-07-26T03:34:26.930Z,64.13
2022-07-26T03:37:45.370Z,64.07
2022-07-26T03:40:50.503Z,63.96
2022-07-26T03:43:53.613Z,63.95
2022-07-26T03:46:56.372Z,64.08
2022-07-26T03:49:59.575Z,63.96
2022-07-26T03:53:02.260Z,64.22
2022-07-26T03:56:30.172Z,64.14
2022-07-26T03:59:32.907Z,64.19
2022-07-26T04:02:35.697Z,64.43
2022-07-26T04:05:39.316Z,64.63
2022-07-26T04:08:43.313Z,64.96
2022-07-26T04:11:48.623Z,65.01
2022-07-26T04:14:51.355Z,65.13
2022-07-26T04:17:54.055Z,65.02
2022-07-26T04:20:57.278Z,65.02
2022-07-26T04:24:00.098Z,64.84
2022-07-26T04:27:04.851Z,64.55
2022-07-26T04:30:14.266Z,64.23
2022-07-26T04:33:18.347Z,64.08
2022-07-26T04:36:21.114Z,63.79
2022-07-26T04:39:25.023Z,63.42
2022-07-26T04:42:29.354Z,62.64
2022-07-26T04:45:32.350Z,62.28
2022-07-26T04:48:36.419Z,62.01
2022-07-26T04:51:39.178Z,61.88
2022-07-26T04:54:41.890Z,61.16
2022-07-26T04:57:47.577Z,60.77
2022-07-26T05:04:13.572Z,60.36
2022-07-26T05:07:16.727Z,59.97
2022-07-26T05:10:20.707Z,59.47
2022-07-26T05:13:29.547Z,57.29
2022-07-26T05:16:33.083Z,55.44
2022-07-26T05:19:36.659Z,53.86
2022-07-26T05:22:39.484Z,51.19
2022-07-26T05:25:42.219Z,48.54
2022-07-26T05:28:46.732Z,46.71
2022-07-26T05:31:50.245Z,45.43
2022-07-26T05:34:53.106Z,46.48
2022-07-26T05:37:59.234Z,47.67
2022-07-26T05:41:01.946Z,49.07
2022-07-26T05:44:07.219Z,49.39
2022-07-26T05:47:10.176Z,49.17
2022-07-26T05:50:13.083Z,49.76
2022-07-26T05:53:15.800Z,49.98
2022-07-26T05:56:18.536Z,50.39
2022-07-26T05:59:22.596Z,50.62
2022-07-26T06:02:25.449Z,50.87
2022-07-26T06:05:28.229Z,50.79
2022-07-26T06:08:31.509Z,50.73
2022-07-26T06:11:34.259Z,50.70
2022-07-26T06:14:38.933Z,50.35
2022-07-26T06:17:42.157Z,50.30
2022-07-26T06:20:48.237Z,49.61
2022-07-26T06:23:51.315Z,48.40
2022-07-26T06:26:58.197Z,47.79
2022-07-26T06:30:11.216Z,46.77
2022-07-26T06:33:14.089Z,47.01
2022-07-26T06:36:16.845Z,46.13
2022-07-26T06:39:20.239Z,45.21
2022-07-26T06:42:22.956Z,43.71
2022-07-26T06:45:27.739Z,42.33
2022-07-26T06:48:30.521Z,42.79
2022-07-26T06:51:33.312Z,43.67
2022-07-26T06:54:36.330Z,44.64
2022-07-26T06:57:44.835Z,43.56
2022-07-26T07:00:55.292Z,43.01
2022-07-26T07:03:58.469Z,42.99
2022-07-26T07:07:06.123Z,42.82
2022-07-26T07:10:09.750Z,41.27
2022-07-26T07:13:12.726Z,39.44
2022-07-26T07:16:17.324Z,39.47
2022-07-26T07:19:20.141Z,39.21
2022-07-26T07:22:23.223Z,38.68
2022-07-26T07:25:30.313Z,37.79
2022-07-26T07:28:39.066Z,37.64
2022-07-26T07:31:48.581Z,38.51
2022-07-26T07:34:52.096Z,37.72
2022-07-26T07:37:54.965Z,37.10
2022-07-26T07:40:58.581Z,36.90
2022-07-26T07:44:01.595Z,37.30
2022-07-26T07:47:06.343Z,37.22
2022-07-26T07:50:10.046Z,37.83
2022-07-26T07:53:12.918Z,36.71
2022-07-26T07:56:15.610Z,36.44
2022-07-26T07:59:18.493Z,36.35
2022-07-26T08:02:22.882Z,35.91
2022-07-26T08:05:25.578Z,35.40
2022-07-26T08:08:28.413Z,35.75
2022-07-26T08:11:31.330Z,36.88
2022-07-26T08:14:36.607Z,38.06
2022-07-26T08:17:41.751Z,39.60
2022-07-26T08:20:44.829Z,40.11
2022-07-26T08:23:47.617Z,40.39
2022-07-26T08:26:51.830Z,40.57
2022-07-26T08:29:54.588Z,40.41
2022-07-26T08:32:59.612Z,40.50
2022-07-26T08:36:03.136Z,40.57
2022-07-26T08:39:06.217Z,40.62
2022-07-26T08:42:15.745Z,40.52
2022-07-26T08:45:23.751Z,40.55
2022-07-26T08:48:27.931Z,40.86
2022-07-26T08:51:32.246Z,40.55
2022-07-26T08:54:35.315Z,39.85
2022-07-26T08:57:38.060Z,39.60
2022-07-26T09:00:41.593Z,40.67
2022-07-26T09:03:46.863Z,40.62
2022-07-26T09:07:00.479Z,40.70
2022-07-26T09:10:06.345Z,40.48
2022-07-26T09:13:09.083Z,40.88
2022-07-26T09:16:12.689Z,40.43
2022-07-26T09:19:19.744Z,40.03
2022-07-26T09:22:22.473Z,39.64
2022-07-26T09:25:26.592Z,39.18
2022-07-26T09:28:30.982Z,39.17
2022-07-26T09:31:33.991Z,37.82
2022-07-26T09:34:44.389Z,38.16
2022-07-26T09:37:54.719Z,38.45
2022-07-26T09:40:58.271Z,38.27
2022-07-26T09:44:02.786Z,38.00
2022-07-26T09:47:05.824Z,38.20
2022-07-26T09:50:17.710Z,38.22
2022-07-26T09:53:22.750Z,38.10
2022-07-26T09:56:25.501Z,38.43
2022-07-26T09:59:29.765Z,38.66
2022-07-26T10:02:33.829Z,38.56
2022-07-26T10:05:38.242Z,38.36
2022-07-26T10:08:43.926Z,38.23
2022-07-26T10:11:51.789Z,37.66
2022-07-26T10:14:59.941Z,37.29
2022-07-26T10:18:03.319Z,36.46
2022-07-26T10:21:21.974Z,35.43
2022-07-26T10:24:26.419Z,35.92
2022-07-26T10:27:39.017Z,36.52
2022-07-26T10:30:42.175Z,36.12
2022-07-26T10:33:47.604Z,36.49
2022-07-26T10:36:58.957Z,36.67
2022-07-26T10:40:21.183Z,36.50
2022-07-26T10:43:41.577Z,35.79
2022-07-26T10:47:11.236Z,36.22
2022-07-26T10:50:33.119Z,35.04
2022-07-26T10:53:37.171Z,33.50
2022-07-26T10:56:40.966Z,33.40
2022-07-26T10:59:55.736Z,33.79
2022-07-26T11:03:00.848Z,33.44
2022-07-26T11:06:13.124Z,33.49
2022-07-26T11:09:20.951Z,33.26
2022-07-26T11:12:24.193Z,32.82
2022-07-26T11:15:30.862Z,33.30
2022-07-26T11:18:36.126Z,32.70
2022-07-26T11:21:40.512Z,32.23
2022-07-26T11:24:45.655Z,32.26
2022-07-26T11:28:00.209Z,31.50
2022-07-26T11:31:03.864Z,31.71
2022-07-26T11:34:08.345Z,31.79
2022-07-26T11:37:15.768Z,31.45
2022-07-26T11:40:20.085Z,31.18
2022-07-26T11:43:22.875Z,30.59
2022-07-26T11:46:34.666Z,30.21
2022-07-26T11:50:12.518Z,30.04
2022-07-26T11:53:00.416Z,30.09
2022-07-26T11:56:13.157Z,29.14
2022-07-26T11:59:15.994Z,29.98
2022-07-26T12:02:19.279Z,30.23
2022-07-26T12:05:23.818Z,30.36
2022-07-26T12:08:26.698Z,30.25
2022-07-26T12:11:42.007Z,31.02
2022-07-26T12:14:44.737Z,31.16
2022-07-26T12:18:00.813Z,31.61
2022-07-26T12:21:07.539Z,30.92
2022-07-26T12:24:12.851Z,30.69
2022-07-26T12:27:20.385Z,30.75
2022-07-26T12:30:23.717Z,30.35
2022-07-26T12:33:26.497Z,30.61
2022-07-26T12:36:30.575Z,30.90
2022-07-26T12:39:33.631Z,31.16
2022-07-26T12:42:39.458Z,31.14
2022-07-26T12:45:42.282Z,30.82
2022-07-26T12:48:46.881Z,30.92
2022-07-26T12:51:50.159Z,30.43
2022-07-26T12:54:54.212Z,30.85
2022-07-26T12:57:58.538Z,30.44
2022-07-26T13:01:02.306Z,30.38
2022-07-26T13:04:05.579Z,30.33
2022-07-26T13:07:08.342Z,30.67
2022-07-26T13:13:36.593Z,30.85
2022-07-26T13:16:39.353Z,30.14
2022-07-26T13:19:42.305Z,30.02
2022-07-26T13:22:44.997Z,30.43
2022-07-26T13:25:47.720Z,30.16
2022-07-26T13:28:51.794Z,30.14
2022-07-26T13:31:55.662Z,30.51
2022-07-26T13:34:58.352Z,30.81
2022-07-26T13:38:00.992Z,30.50
2022-07-26T13:41:04.299Z,30.71
2022-07-26T13:44:08.829Z,30.65
2022-07-26T13:47:11.733Z,31.14
2022-07-26T13:50:14.404Z,31.51
2022-07-26T13:53:17.295Z,32.09
2022-07-26T13:56:20.512Z,32.98
2022-07-26T13:59:25.138Z,33.54
2022-07-26T14:02:27.939Z,32.96
2022-07-26T14:05:30.681Z,33.33
2022-07-26T14:08:33.429Z,33.45
2022-07-26T14:11:36.827Z,33.51
2022-07-26T14:14:40.839Z,33.11
2022-07-26T14:17:44.910Z,33.36
2022-07-26T14:20:47.925Z,33.80
2022-07-26T14:23:51.607Z,34.15
2022-07-26T14:26:58.908Z,34.42
2022-07-26T14:30:05.426Z,34.19
2022-07-26T14:33:08.168Z,34.19
2022-07-26T14:36:13.247Z,33.93
2022-07-26T14:39:15.971Z,33.75
2022-07-26T14:42:18.743Z,33.15
2022-07-26T14:45:22.819Z,33.03
2022-07-26T14:48:51.874Z,32.60
2022-07-26T14:51:48.796Z,32.58
2022-07-26T14:54:51.658Z,32.40
2022-07-26T14:57:54.377Z,32.29
2022-07-26T15:00:58.660Z,32.63
2022-07-26T15:04:01.501Z,32.85
2022-07-26T15:07:04.474Z,32.89
2022-07-26T15:10:09.140Z,32.59
2022-07-26T15:13:12.829Z,32.51
2022-07-26T15:16:17.147Z,32.18
2022-07-26T15:19:25.141Z,32.14
2022-07-26T15:22:28.653Z,32.00
2022-07-26T15:25:31.329Z,31.92
2022-07-26T15:28:34.119Z,32.05
2022-07-26T15:31:38.254Z,32.16
2022-07-26T15:34:41.036Z,31.87
2022-07-26T15:37:44.793Z,31.86
2022-07-26T15:40:47.561Z,32.13
2022-07-26T15:43:50.286Z,32.34
2022-07-26T15:46:54.472Z,32.64
2022-07-26T15:49:57.822Z,32.46
2022-07-26T15:53:00.553Z,32.30
2022-07-26T15:56:03.675Z,32.11
2022-07-26T15:59:07.276Z,31.98
2022-07-26T16:02:11.549Z,31.98
2022-07-26T16:05:14.542Z,31.99
2022-07-26T16:08:17.438Z,31.74
2022-07-26T16:11:20.384Z,32.01
2022-07-26T16:14:23.204Z,32.38
2022-07-26T16:17:27.604Z,32.84
2022-07-26T16:20:30.356Z,32.84
2022-07-26T16:23:33.203Z,32.97
2022-07-26T16:26:36.630Z,33.19
2022-07-26T16:29:39.714Z,33.61
2022-07-26T16:32:44.307Z,34.48
2022-07-26T16:35:46.951Z,34.45
2022-07-26T16:38:49.868Z,34.71
2022-07-26T16:41:52.673Z,34.94
2022-07-26T16:44:55.616Z,36.06
2022-07-26T16:48:00.140Z,36.23
2022-07-26T16:51:03.180Z,35.99
2022-07-26T16:54:06.282Z,37.27
2022-07-26T16:57:09.351Z,37.43
2022-07-26T17:00:15.725Z,36.99
2022-07-26T17:03:19.913Z,36.56
2022-07-26T17:06:23.228Z,38.21
2022-07-26T17:09:25.968Z,38.05
2022-07-26T17:12:28.765Z,38.11
2022-07-26T17:15:31.651Z,38.38
2022-07-26T17:18:35.825Z,38.46
2022-07-26T17:21:38.758Z,38.40
2022-07-26T17:24:45.338Z,38.51
2022-07-26T17:27:48.082Z,38.66
2022-07-26T17:30:50.881Z,38.46
2022-07-26T17:33:54.993Z,38.83
2022-07-26T17:36:59.150Z,38.77
2022-07-26T17:40:01.911Z,38.52
2022-07-26T17:43:06.596Z,39.49
2022-07-26T17:46:09.380Z,39.99
2022-07-26T17:49:14.106Z,40.28
2022-07-26T17:52:17.164Z,40.45
2022-07-26T17:55:21.148Z,40.89
2022-07-26T17:58:23.937Z,41.30
2022-07-26T18:01:27.170Z,41.67
2022-07-26T18:04:31.208Z,42.03
2022-07-26T18:07:33.899Z,42.34
2022-07-26T18:10:36.953Z,42.75
2022-07-26T18:13:39.678Z,43.10
2022-07-26T18:16:47.362Z,43.88
2022-07-26T18:19:58.363Z,44.28
2022-07-26T18:23:02.678Z,44.39
2022-07-26T18:26:05.411Z,44.31
2022-07-26T18:29:08.623Z,44.75
2022-07-26T18:32:11.755Z,45.43
2022-07-26T18:35:15.882Z,45.87
2022-07-26T18:38:18.717Z,46.16
2022-07-26T18:41:21.619Z,46.40
2022-07-26T18:44:25.190Z,46.46
2022-07-26T18:47:27.928Z,46.68
2022-07-26T18:50:32.349Z,46.75
2022-07-26T18:53:35.082Z,46.99
2022-07-26T18:56:37.779Z,46.91
2022-07-26T18:59:40.485Z,47.07
2022-07-26T19:02:44.231Z,46.99
2022-07-26T19:05:48.293Z,46.94
2022-07-26T19:08:50.977Z,46.67
2022-07-26T19:11:53.702Z,46.30
2022-07-26T19:14:56.393Z,45.99
2022-07-26T19:17:59.522Z,45.57
2022-07-26T19:21:04.176Z,45.45
2022-07-26T19:24:07.204Z,45.33
2022-07-26T19:27:12.732Z,45.19
2022-07-26T19:30:15.511Z,45.27
2022-07-26T19:33:18.834Z,46.04
2022-07-26T19:36:26.222Z,45.91
2022-07-26T19:39:29.742Z,45.75
2022-07-26T19:42:32.788Z,45.83
2022-07-26T19:45:35.610Z,45.96
2022-07-26T19:48:38.512Z,45.76
2022-07-26T19:51:43.218Z,45.80
2022-07-26T19:54:46.142Z,45.27
2022-07-26T19:57:49.102Z,45.09
2022-07-26T20:00:51.803Z,44.91
2022-07-26T20:03:55.956Z,45.01
2022-07-26T20:07:00.186Z,44.96
2022-07-26T20:10:03.136Z,45.12
2022-07-26T20:13:06.849Z,45.21
2022-07-26T20:16:09.698Z,45.39
2022-07-26T20:19:13.265Z,45.58
2022-07-26T20:22:18.296Z,45.66
2022-07-26T20:25:22.146Z,45.91
2022-07-26T20:28:25.476Z,46.05
2022-07-26T20:31:28.323Z,45.84
2022-07-26T20:34:31.042Z,46.10
2022-07-26T20:37:35.191Z,46.15
2022-07-26T20:40:38.311Z,46.20
2022-07-26T20:43:41.918Z,46.30
2022-07-26T20:46:45.674Z,45.73
2022-07-26T20:49:48.821Z,45.81
2022-07-26T20:52:53.018Z,45.72
2022-07-26T20:55:56.046Z,45.83
2022-07-26T20:58:59.007Z,46.46
2022-07-26T21:02:02.292Z,46.80
2022-07-26T21:05:06.210Z,47.33
2022-07-26T21:08:10.294Z,46.73
2022-07-26T21:11:12.983Z,46.59
2022-07-26T21:14:15.703Z,46.72
2022-07-26T21:17:18.772Z,47.47
2022-07-26T21:20:22.216Z,47.89
2022-07-26T21:23:26.630Z,48.03
2022-07-26T21:26:29.445Z,48.42
2022-07-26T21:29:32.455Z,48.14
2022-07-26T21:32:40.676Z,48.38
2022-07-26T21:35:43.618Z,48.31
2022-07-26T21:38:47.708Z,48.55
2022-07-26T21:41:50.572Z,48.85
2022-07-26T21:44:53.260Z,49.01
2022-07-26T21:47:56.128Z,49.05
2022-07-26T21:50:59.089Z,49.22
2022-07-26T21:54:03.109Z,49.46
2022-07-26T21:57:05.884Z,49.76
2022-07-26T22:00:10.910Z,49.92
2022-07-26T22:03:13.620Z,49.93
2022-07-26T22:06:18.186Z,50.24
2022-07-26T22:09:22.336Z,50.42
2022-07-26T22:12:25.177Z,50.40
2022-07-26T22:15:27.868Z,50.52
2022-07-26T22:18:31.826Z,50.88
2022-07-26T22:21:34.508Z,51.03
2022-07-26T22:24:38.608Z,51.25
2022-07-26T22:27:41.756Z,52.69
2022-07-26T22:30:44.454Z,53.93
2022-07-26T22:33:47.418Z,55.13
2022-07-26T22:36:50.081Z,55.64
2022-07-26T22:39:54.175Z,55.85
2022-07-26T22:42:58.636Z,56.07
2022-07-26T22:46:01.846Z,55.66
2022-07-26T22:49:04.887Z,55.62
2022-07-26T22:52:13.631Z,55.39
2022-07-26T22:55:17.773Z,55.23
2022-07-26T22:58:21.158Z,55.22
2022-07-26T23:01:24.351Z,55.07
2022-07-26T23:04:27.326Z,55.26
2022-07-26T23:07:32.506Z,55.34
2022-07-26T23:10:36.710Z,55.81
2022-07-26T23:13:40.049Z,56.09
2022-07-26T23:16:42.842Z,55.97
2022-07-26T23:19:47.038Z,55.98
2022-07-26T23:22:49.759Z,55.72
2022-07-26T23:25:53.821Z,55.80
2022-07-26T23:28:56.562Z,55.53
2022-07-26T23:32:00.000Z,55.33
2022-07-26T23:35:02.909Z,55.28
2022-07-26T23:38:05.604Z,55.08
2022-07-26T23:41:09.712Z,55.11
2022-07-26T23:44:12.444Z,55.37
2022-07-26T23:47:15.282Z,55.31
2022-07-26T23:50:18.929Z,55.05
2022-07-26T23:53:26.449Z,55.10
2022-07-26T23:56:31.206Z,54.84
2022-07-26T23:59:34.270Z,55.10
